Time;durP1;ratioP1;P1;durP2;ratioP2;P2;SDS_P1;SDS_P2;PMS_P1;PMS_P2;Temp;Humidity;BMP_temperature;BMP_pressure;BME280_temperature;BME280_humidity;BME280_pressure;Samples;Min_cycle;Max_cycle;Signal;HPM_P1;HPM_P2
2023/07/28 00:00:10;;;;;;;2.40;2.20;;;;;;;16.89;100.00;100441.47;5031775;28;20104;-84
2023/07/28 00:02:35;;;;;;;1.90;1.80;;;;;;;16.88;100.00;100437.16;5032610;28;20029;-84
2023/07/28 00:05:01;;;;;;;1.60;1.50;;;;;;;16.88;100.00;100429.28;5032625;28;20044;-84
2023/07/28 00:07:26;;;;;;;1.67;1.57;;;;;;;16.85;100.00;100421.56;5035009;28;20064;-84
2023/07/28 00:09:51;;;;;;;2.00;1.90;;;;;;;16.87;100.00;100428.44;5036377;28;20033;-84
2023/07/28 00:12:17;;;;;;;1.90;1.80;;;;;;;16.82;100.00;100417.34;5034943;28;20026;-84
2023/07/28 00:14:42;;;;;;;1.73;1.63;;;;;;;16.88;100.00;100421.44;5032488;28;20041;-84
2023/07/28 00:17:07;;;;;;;1.77;1.67;;;;;;;16.83;100.00;100413.78;5014036;28;20038;-84
2023/07/28 00:19:33;;;;;;;2.00;1.90;;;;;;;16.89;100.00;100423.13;5015286;28;20402;-84
2023/07/28 00:21:58;;;;;;;2.40;2.20;;;;;;;16.88;100.00;100432.75;5015593;28;20493;-84
2023/07/28 00:24:23;;;;;;;2.10;2.00;;;;;;;16.85;100.00;100430.25;5015768;28;20112;-84
2023/07/28 00:26:49;;;;;;;2.20;2.00;;;;;;;16.87;100.00;100428.44;5015166;28;20032;-84
2023/07/28 00:29:14;;;;;;;1.90;1.80;;;;;;;16.84;100.00;100431.19;5015069;28;20030;-84
2023/07/28 00:31:39;;;;;;;1.80;1.70;;;;;;;16.87;100.00;100424.97;5015508;28;20026;-84
2023/07/28 00:34:04;;;;;;;2.07;1.97;;;;;;;16.85;100.00;100424.19;5015110;28;20060;-84
2023/07/28 00:36:31;;;;;;;1.80;1.70;;;;;;;16.85;100.00;100421.56;5027644;28;20033;-84
2023/07/28 00:38:56;;;;;;;1.67;1.58;;;;;;;16.85;100.00;100413.69;5035622;28;20080;-85
2023/07/28 00:41:22;;;;;;;1.25;1.25;;;;;;;16.83;100.00;100404.13;5034698;28;20029;-84
2023/07/28 00:43:47;;;;;;;1.27;1.27;;;;;;;16.85;100.00;100411.91;5034909;28;20025;-84
2023/07/28 00:46:14;;;;;;;1.60;1.50;;;;;;;16.87;100.00;100410.09;5034935;28;20021;-84
2023/07/28 00:48:40;;;;;;;3.35;2.53;;;;;;;16.88;100.00;100411.78;5034020;28;20029;-84
2023/07/28 00:51:07;;;;;;;2.40;2.20;;;;;;;16.89;100.00;100416.09;5034356;28;20036;-84
2023/07/28 00:53:32;;;;;;;2.80;2.60;;;;;;;16.88;100.00;100406.53;5035149;28;20044;-84
2023/07/28 00:55:58;;;;;;;3.30;3.00;;;;;;;16.86;100.00;100413.63;5033995;28;20065;-84
2023/07/28 00:58:24;;;;;;;3.20;2.90;;;;;;;16.83;100.00;100411.16;5034662;28;20151;-84
2023/07/28 01:00:49;;;;;;;2.97;2.67;;;;;;;16.84;100.00;100412.84;5034566;28;20032;-84
2023/07/28 01:03:16;;;;;;;2.80;2.50;;;;;;;16.82;100.00;100417.34;5035291;28;20378;-83
2023/07/28 01:05:51;;;;;;;;;;;;;;;16.83;100.00;100419.88;5035351;28;20486;-84
2023/07/28 01:08:21;;;;;;;2.85;2.60;;;;;;;16.83;100.00;100424.28;5033669;28;20372;-84
2023/07/28 01:10:47;;;;;;;2.13;2.00;;;;;;;16.82;100.00;100422.56;5034924;28;20021;-84
2023/07/28 01:13:12;;;;;;;2.30;2.10;;;;;;;16.81;100.00;100426.94;5034490;28;20532;-83
2023/07/28 01:15:37;;;;;;;2.10;2.00;;;;;;;16.78;100.00;100436.72;5034135;28;20029;-84
2023/07/28 01:18:03;;;;;;;2.10;2.00;;;;;;;16.85;100.00;100432.06;5033693;28;20033;-84
2023/07/28 01:20:31;;;;;;;1.83;1.73;;;;;;;16.83;100.00;100429.50;5035260;28;20347;-84
2023/07/28 01:23:13;;;;;;;2.00;1.90;;;;;;;16.86;100.00;100434.59;5034522;28;20040;-83
2023/07/28 01:25:49;;;;;;;2.15;1.95;;;;;;;16.86;100.00;100433.75;5034537;28;20363;-84
2023/07/28 01:28:16;;;;;;;2.17;2.08;;;;;;;16.86;100.00;100433.75;5034171;28;20489;-83
2023/07/28 01:30:42;;;;;;;1.98;1.88;;;;;;;16.86;100.00;100431.13;5033842;28;20367;-83
2023/07/28 01:33:08;;;;;;;1.80;1.70;;;;;;;16.88;100.00;100431.91;5034175;28;20104;-83
2023/07/28 01:35:35;;;;;;;2.05;1.95;;;;;;;16.88;100.00;100431.91;5034481;28;20024;-84
2023/07/28 01:38:01;;;;;;;3.00;2.63;;;;;;;16.87;100.00;100433.66;5034833;28;20041;-84
2023/07/28 01:40:29;;;;;;;2.13;2.03;;;;;;;16.88;100.00;100439.78;5033958;28;20025;-83
2023/07/28 01:42:54;;;;;;;2.53;2.33;;;;;;;16.86;100.00;100433.75;5036209;28;20033;-83
2023/07/28 01:45:19;;;;;;;2.40;2.20;;;;;;;16.86;100.00;100439.00;5035987;28;20037;-83
2023/07/28 01:47:48;;;;;;;2.00;1.90;;;;;;;16.86;100.00;100441.63;5033916;28;20025;-83
2023/07/28 01:50:13;;;;;;;2.22;2.10;;;;;;;16.84;100.00;100439.03;5015295;28;20398;-84
2023/07/28 01:52:38;;;;;;;2.07;1.97;;;;;;;16.85;100.00;100443.38;5013741;28;20029;-84
2023/07/28 01:55:04;;;;;;;2.53;2.33;;;;;;;16.87;100.00;100436.28;5014128;28;20029;-84
2023/07/28 01:57:33;;;;;;;2.50;2.30;;;;;;;16.86;100.00;100439.81;5013904;28;20022;-84
2023/07/28 01:59:58;;;;;;;2.20;2.00;;;;;;;16.86;100.00;100439.00;5013951;28;20068;-84
2023/07/28 02:02:26;;;;;;;2.67;2.20;;;;;;;16.88;100.00;100443.22;5013886;28;20053;-84
2023/07/28 02:04:52;;;;;;;2.40;2.20;;;;;;;16.87;100.00;100438.06;5014578;28;20068;-83
2023/07/28 02:07:17;;;;;;;2.30;2.10;;;;;;;16.83;100.00;100426.91;5013631;28;20061;-84
2023/07/28 02:09:43;;;;;;;2.13;2.00;;;;;;;16.85;100.00;100439.91;5014256;28;20425;-83
2023/07/28 02:12:08;;;;;;;1.97;1.87;;;;;;;16.86;100.00;100433.75;5013222;28;20018;-83
2023/07/28 02:14:33;;;;;;;1.60;1.50;;;;;;;16.83;100.00;100430.34;5014230;28;20485;-84
2023/07/28 02:16:58;;;;;;;1.40;1.40;;;;;;;16.86;100.00;100428.50;5014152;28;20060;-83
2023/07/28 02:19:25;;;;;;;1.70;1.60;;;;;;;16.84;100.00;100423.31;5013282;28;20049;-83
2023/07/28 02:21:53;;;;;;;1.60;1.50;;;;;;;16.87;100.00;100419.72;5013745;28;20064;-84
2023/07/28 02:24:18;;;;;;;1.60;1.50;;;;;;;16.88;100.00;100427.50;5013730;28;20030;-85
2023/07/28 02:26:43;;;;;;;2.17;2.07;;;;;;;16.86;100.00;100428.50;5013377;28;20390;-84
2023/07/28 02:29:14;;;;;;;1.70;1.60;;;;;;;16.87;100.00;100430.22;5012460;28;20374;-85
2023/07/28 02:31:40;;;;;;;1.60;1.50;;;;;;;16.86;100.00;100433.75;5013823;28;20045;-85
2023/07/28 02:34:08;;;;;;;2.00;1.90;;;;;;;16.86;100.00;100428.50;5013182;28;20438;-86
2023/07/28 02:36:33;;;;;;;2.10;1.90;;;;;;;16.85;100.00;100434.66;5013605;28;20474;-83
2023/07/28 02:38:58;;;;;;;1.70;1.60;;;;;;;16.83;100.00;100438.22;5014530;28;20026;-84
2023/07/28 02:41:23;;;;;;;2.33;2.10;;;;;;;16.85;100.00;100435.50;5013633;28;20101;-84
2023/07/28 02:43:49;;;;;;;2.30;2.00;;;;;;;16.86;100.00;100441.63;5013735;28;20479;-84
2023/07/28 02:46:14;;;;;;;2.57;2.20;;;;;;;16.85;100.00;100439.91;5013099;28;20033;-83
2023/07/28 02:48:40;;;;;;;3.53;2.60;;;;;;;16.87;100.00;100443.31;5013907;28;20135;-83
2023/07/28 02:51:06;;;;;;;2.73;2.30;;;;;;;16.85;100.00;100442.53;5013469;28;20045;-83
2023/07/28 02:53:31;;;;;;;4.60;3.17;;;;;;;16.85;100.00;100438.13;5014148;28;20050;-84
2023/07/28 02:55:56;;;;;;;3.10;2.40;;;;;;;16.86;100.00;100446.84;5014158;28;20351;-83
2023/07/28 02:58:22;;;;;;;2.80;2.40;;;;;;;16.87;100.00;100453.78;5013663;28;20026;-84
2023/07/28 03:00:47;;;;;;;2.20;2.00;;;;;;;16.86;100.00;100447.69;5013113;28;20068;-84
2023/07/28 03:03:12;;;;;;;1.97;1.77;;;;;;;16.89;100.00;100449.34;5013538;28;20018;-84
2023/07/28 03:05:39;;;;;;;4.33;3.00;;;;;;;16.88;100.00;100456.34;5013201;28;20498;-83
2023/07/28 03:08:04;;;;;;;;;;;;;;;16.89;100.00;100449.34;5012918;28;20030;-84
2023/07/28 03:10:30;;;;;;;4.67;3.30;;;;;;;16.87;100.00;100459.88;5013159;28;19940;-84
2023/07/28 03:12:55;;;;;;;3.87;2.63;;;;;;;16.86;100.00;100452.09;5012541;28;20442;-84
2023/07/28 03:15:22;;;;;;;2.80;2.37;;;;;;;16.86;100.00;100458.16;5012740;28;20062;-83
2023/07/28 03:17:48;;;;;;;2.88;2.40;;;;;;;16.89;100.00;100457.19;5013043;28;20069;-84
2023/07/28 03:20:16;;;;;;;2.20;2.00;;;;;;;16.88;100.00;100451.09;5012962;28;20033;-83
2023/07/28 03:22:41;;;;;;;2.33;2.00;;;;;;;16.86;100.00;100452.94;5012785;28;20100;-84
2023/07/28 03:25:07;;;;;;;2.63;2.10;;;;;;;16.91;100.00;100457.94;5012723;28;20057;-84
2023/07/28 03:27:33;;;;;;;3.40;2.35;;;;;;;16.85;100.00;100458.25;5013117;28;20478;-84
2023/07/28 03:29:59;;;;;;;2.90;2.38;;;;;;;16.89;100.00;100468.53;5012770;28;20030;-84
2023/07/28 03:32:24;;;;;;;4.37;3.00;;;;;;;16.89;100.00;100465.91;5012605;28;20052;-84
2023/07/28 03:34:52;;;;;;;3.10;2.47;;;;;;;16.86;100.00;100458.16;5013055;28;20168;-84
2023/07/28 03:37:19;;;;;;;4.03;2.78;;;;;;;16.88;100.00;100458.94;5012127;28;20486;-84
2023/07/28 03:39:44;;;;;;;5.38;3.55;;;;;;;16.89;100.00;100470.31;5012699;28;20097;-84
2023/07/28 03:42:09;;;;;;;3.30;2.63;;;;;;;16.89;100.00;100470.31;5016110;28;20493;-84
2023/07/28 03:44:37;;;;;;;6.00;3.63;;;;;;;16.88;100.00;100476.47;5016282;28;20494;-85
2023/07/28 03:47:03;;;;;;;6.30;3.10;;;;;;;16.88;100.00;100484.31;5016050;28;20029;-84
2023/07/28 03:49:29;;;;;;;4.82;2.90;;;;;;;16.85;100.00;100473.97;5015840;28;20474;-83
2023/07/28 03:51:54;;;;;;;3.00;2.50;;;;;;;16.86;100.00;100480.94;5016403;28;20186;-84
2023/07/28 03:54:19;;;;;;;3.60;2.80;;;;;;;16.88;100.00;100482.53;5015953;28;20080;-84
2023/07/28 03:56:44;;;;;;;2.60;2.23;;;;;;;16.88;100.00;100487.78;5016099;28;20049;-84
2023/07/28 03:59:10;;;;;;;3.90;2.67;;;;;;;16.91;100.00;100489.41;5016143;28;20121;-84
2023/07/28 04:01:35;;;;;;;2.57;2.30;;;;;;;16.89;100.00;100491.28;5016431;28;20484;-84
2023/07/28 04:04:03;;;;;;;2.83;2.20;;;;;;;16.92;100.00;100488.47;5015716;28;20030;-84
2023/07/28 04:06:43;;;;;;;2.35;2.15;;;;;;;16.91;100.00;100487.66;5015904;28;20030;-83
2023/07/28 04:09:08;;;;;;;6.22;3.60;;;;;;;16.93;100.00;100487.56;5015762;28;20557;-83
2023/07/28 04:11:34;;;;;;;4.03;2.87;;;;;;;16.94;100.00;100494.53;5015611;28;20117;-84
2023/07/28 04:13:59;;;;;;;4.32;2.78;;;;;;;16.92;100.00;100489.34;5015466;28;20050;-84
2023/07/28 04:16:25;;;;;;;4.20;2.80;;;;;;;16.92;100.00;100491.97;5015450;28;20034;-84
2023/07/28 04:18:50;;;;;;;3.10;2.50;;;;;;;16.93;100.00;100491.06;5015322;28;20057;-84
2023/07/28 04:21:15;;;;;;;3.60;2.60;;;;;;;16.93;100.00;100492.81;5015382;28;20026;-84
2023/07/28 04:23:41;;;;;;;4.27;2.70;;;;;;;16.91;100.00;100489.41;5015867;28;20047;-84
2023/07/28 04:26:06;;;;;;;4.10;3.00;;;;;;;16.92;100.00;100489.34;5014738;28;20017;-83
2023/07/28 04:28:31;;;;;;;4.50;2.90;;;;;;;16.92;100.00;100481.50;5015653;28;20034;-84
2023/07/28 04:30:57;;;;;;;5.40;3.10;;;;;;;16.93;100.00;100482.31;5016067;28;20018;-85
2023/07/28 04:33:22;;;;;;;6.80;3.80;;;;;;;16.92;100.00;100485.88;5014907;28;20493;-84
2023/07/28 04:35:47;;;;;;;5.20;3.13;;;;;;;16.92;100.00;100478.00;5014905;28;20064;-84
2023/07/28 04:38:13;;;;;;;7.37;4.10;;;;;;;16.96;100.00;100485.66;5015280;28;20022;-84
2023/07/28 04:40:38;;;;;;;8.33;4.60;;;;;;;16.97;100.00;100489.16;5014908;28;20048;-84
2023/07/28 04:43:04;;;;;;;8.70;4.77;;;;;;;16.97;100.00;100489.16;5015239;28;20105;-84
2023/07/28 04:45:29;;;;;;;6.93;4.20;;;;;;;16.95;100.00;100481.34;5015555;28;20026;-83
2023/07/28 04:47:54;;;;;;;5.83;3.70;;;;;;;16.99;100.00;100484.69;5014572;28;20390;-84
2023/07/28 04:50:20;;;;;;;6.93;4.20;;;;;;;17.00;100.00;100478.50;5015111;28;20029;-84
2023/07/28 04:52:45;;;;;;;5.70;3.57;;;;;;;17.05;100.00;100476.53;5013817;28;20026;-83
2023/07/28 04:55:10;;;;;;;4.10;3.03;;;;;;;17.09;100.00;100480.72;5014651;28;20038;-84
2023/07/28 04:57:35;;;;;;;6.37;3.93;;;;;;;17.12;100.00;100485.78;5014699;28;20025;-83
2023/07/28 05:00:01;;;;;;;5.23;3.13;;;;;;;17.16;100.00;100483.03;5014455;28;20061;-83
2023/07/28 05:02:26;;;;;;;4.43;2.90;;;;;;;17.20;100.00;100488.03;5014130;28;20041;-84
2023/07/28 05:04:51;;;;;;;3.03;2.53;;;;;;;17.26;100.00;100486.88;5014960;28;20044;-84
2023/07/28 05:07:20;;;;;;;2.37;2.17;;;;;;;17.26;100.00;100479.88;5014011;28;20383;-84
2023/07/28 05:09:45;;;;;;;4.80;3.25;;;;;;;17.31;100.00;100486.66;5014815;28;20072;-84
2023/07/28 05:12:10;;;;;;;7.23;3.90;;;;;;;17.35;100.00;100496.09;5014673;28;20486;-84
2023/07/28 05:14:36;;;;;;;7.07;4.33;;;;;;;17.37;100.00;100492.44;5014471;28;20026;-84
2023/07/28 05:17:01;;;;;;;5.27;3.57;;;;;;;17.34;100.00;100500.47;5014641;28;20552;-84
2023/07/28 05:19:26;;;;;;;5.43;3.47;;;;;;;17.37;100.00;100504.72;5014359;28;20105;-84
2023/07/28 05:21:52;;;;;;;4.50;3.00;;;;;;;17.35;100.00;100509.19;5014571;28;20026;-84
2023/07/28 05:24:17;;;;;;;3.47;2.70;;;;;;;17.36;100.00;100519.59;5014195;28;20030;-84
2023/07/28 05:26:43;;;;;;;5.47;3.53;;;;;;;17.27;100.00;100507.81;5014784;28;20097;-85
2023/07/28 05:29:08;;;;;;;12.03;5.57;;;;;;;17.32;100.00;100525.94;5013837;28;20470;-85
2023/07/28 05:31:34;;;;;;;8.57;4.97;;;;;;;17.32;100.00;100525.94;5014347;28;20485;-84
2023/07/28 05:33:59;;;;;;;5.93;3.90;;;;;;;17.33;100.00;100526.78;5014664;28;20017;-85
2023/07/28 05:36:24;;;;;;;6.30;3.90;;;;;;;17.30;100.00;100527.78;5026549;28;20063;-84
2023/07/28 05:38:50;;;;;;;6.60;3.90;;;;;;;17.33;100.00;100532.91;5034142;28;20038;-85
2023/07/28 05:41:16;;;;;;;7.25;4.18;;;;;;;17.30;100.00;100530.41;5033769;28;20030;-84
2023/07/28 05:43:41;;;;;;;5.27;3.53;;;;;;;17.33;100.00;100539.91;5033573;28;20116;-84
2023/07/28 05:46:07;;;;;;;3.63;2.73;;;;;;;17.32;100.00;100527.69;5033489;28;20032;-85
2023/07/28 05:48:32;;;;;;;4.27;3.07;;;;;;;17.34;100.00;100528.47;5034175;28;20037;-86
2023/07/28 05:51:00;;;;;;;3.53;2.70;;;;;;;17.37;100.00;100528.34;5033273;28;20393;-85
2023/07/28 05:53:26;;;;;;;4.15;2.90;;;;;;;17.37;100.00;100538.84;5032394;28;20107;-86
2023/07/28 05:55:52;;;;;;;3.33;2.67;;;;;;;17.41;100.00;100548.22;5035183;28;20511;-89
2023/07/28 05:58:17;;;;;;;4.07;2.97;;;;;;;17.41;100.00;100548.22;5033351;28;20029;-85
2023/07/28 06:00:42;;;;;;;5.37;3.50;;;;;;;17.42;100.00;100542.06;5033603;28;20461;-84
2023/07/28 06:03:11;;;;;;;7.57;4.50;;;;;;;17.43;100.00;100544.63;5032451;28;20031;-85
2023/07/28 06:05:39;;;;;;;10.50;5.20;;;;;;;17.44;100.00;100545.47;5033153;28;20021;-84
2023/07/28 06:08:04;;;;;;;13.60;7.35;;;;;;;17.42;100.00;100542.06;5034758;28;20025;-93
2023/07/28 06:10:35;;;;;;;11.93;6.47;;;;;;;17.46;100.00;100548.88;5035515;28;20032;-94
2023/07/28 06:13:01;;;;;;;10.50;5.45;;;;;;;17.43;100.00;100539.38;5035459;28;20375;-93
2023/07/28 06:15:26;;;;;;;8.30;5.07;;;;;;;17.51;100.00;100536.34;5035376;28;20052;-95
2023/07/28 06:17:52;;;;;;;13.87;6.73;;;;;;;17.53;100.00;100531.91;5035338;28;20021;-93
2023/07/28 06:20:17;;;;;;;15.77;7.53;;;;;;;17.58;100.00;100540.41;5033575;28;20045;-88
2023/07/28 06:22:43;;;;;;;13.00;6.73;;;;;;;17.66;100.00;100544.41;5034086;28;20021;-88
2023/07/28 06:25:23;;;;;;;13.67;6.77;;;;;;;17.64;100.00;100541.88;5033469;28;20048;-88
2023/07/28 06:27:49;;;;;;;14.40;7.55;;;;;;;17.66;100.00;100540.03;5033727;28;20021;-88
2023/07/28 06:30:15;;;;;;;17.47;8.87;;;;;;;17.66;100.00;100553.16;5033575;28;20466;-87
2023/07/28 06:33:34;;;;;;;16.05;8.40;;;;;;;17.73;100.00;100558.94;5033542;28;20025;-88
2023/07/28 06:36:00;;;;;;;18.77;9.70;;;;;;;17.74;100.00;100561.47;4973185;28;20038;-93
2023/07/28 06:38:25;;;;;;;19.17;9.30;;;;;;;17.75;100.00;100560.56;4974433;28;20113;-94
2023/07/28 06:40:51;;;;;;;14.50;7.43;;;;;;;17.73;100.00;100557.16;4956385;28;20035;-93
2023/07/28 06:43:18;;;;;;;13.07;6.93;;;;;;;17.82;100.00;100562.84;4970708;28;20038;-92
2023/07/28 06:45:43;;;;;;;14.52;7.43;;;;;;;17.86;100.00;100569.66;5016652;28;20022;-92
2023/07/28 06:48:08;;;;;;;15.30;7.67;;;;;;;17.88;100.00;100567.81;5014754;28;20517;-93
2023/07/28 06:50:34;;;;;;;13.67;7.13;;;;;;;17.86;100.00;100570.50;5014964;28;20041;-90
2023/07/28 06:52:59;;;;;;;14.13;7.10;;;;;;;17.91;100.00;100573.75;5013899;28;20037;-89
2023/07/28 06:55:24;;;;;;;17.40;8.33;;;;;;;17.92;100.00;100577.22;5013260;28;20026;-84
2023/07/28 06:57:49;;;;;;;17.23;8.80;;;;;;;17.93;100.00;100580.72;5013338;28;20029;-85
2023/07/28 07:00:16;;;;;;;16.43;8.57;;;;;;;17.94;100.00;100577.16;5012712;28;20045;-87
2023/07/28 07:02:41;;;;;;;18.10;8.57;;;;;;;17.92;100.00;100574.59;5013828;28;20022;-88
2023/07/28 07:05:07;;;;;;;18.60;8.87;;;;;;;17.96;100.00;100578.78;5013607;28;20492;-89
2023/07/28 07:07:32;;;;;;;15.73;7.93;;;;;;;17.97;100.00;100577.88;5013451;28;20032;-85
2023/07/28 07:09:58;;;;;;;13.87;7.07;;;;;;;18.00;100.00;100584.75;5020368;28;20030;-87
2023/07/28 07:12:23;;;;;;;16.40;8.03;;;;;;;18.01;100.00;100587.28;5031939;28;20042;-85
2023/07/28 07:14:52;;;;;;;19.37;9.50;;;;;;;18.03;100.00;100593.31;5033232;28;20021;-85
2023/07/28 07:17:17;;;;;;;18.23;8.82;;;;;;;18.01;100.00;100587.28;5050032;22;20052;-85
2023/07/28 07:19:45;;;;;;;15.23;7.60;;;;;;;18.03;100.00;100597.72;5056607;28;20376;-86
2023/07/28 07:22:11;;;;;;;13.60;6.90;;;;;;;18.06;100.00;100605.47;5055828;28;20107;-85
2023/07/28 07:24:36;;;;;;;15.13;8.00;;;;;;;18.06;100.00;100606.28;5056682;28;20122;-85
2023/07/28 07:27:01;;;;;;;11.87;6.40;;;;;;;18.10;100.00;100603.50;5056089;28;20036;-85
2023/07/28 07:29:27;;;;;;;9.10;5.47;;;;;;;18.11;100.00;100602.59;5054608;28;20068;-85
2023/07/28 07:31:55;;;;;;;8.52;4.78;;;;;;;18.13;100.00;100605.97;5056900;28;20025;-85
2023/07/28 07:34:22;;;;;;;9.68;5.15;;;;;;;18.17;100.00;100610.16;5056315;28;20384;-85
2023/07/28 07:36:47;;;;;;;6.95;4.22;;;;;;;18.19;100.00;100614.38;5056139;28;20025;-85
2023/07/28 07:39:13;;;;;;;11.27;5.70;;;;;;;18.18;100.00;100610.06;5056262;28;20021;-84
2023/07/28 07:41:39;;;;;;;10.57;5.67;;;;;;;18.17;100.00;100616.25;5055919;28;20075;-86
2023/07/28 07:44:04;;;;;;;11.23;5.77;;;;;;;18.18;100.00;100617.94;5056171;28;20067;-87
2023/07/28 07:46:30;;;;;;;7.50;4.60;;;;;;;18.23;100.00;100620.34;5057066;28;20720;-89
2023/07/28 07:48:55;;;;;;;6.37;4.17;;;;;;;18.26;100.00;100616.72;5055521;28;20041;-79
2023/07/28 07:51:20;;;;;;;7.50;4.47;;;;;;;18.28;100.00;100620.94;5056033;28;20041;-87
2023/07/28 07:53:45;;;;;;;7.53;4.57;;;;;;;18.25;100.00;100620.28;5057593;28;20039;-90
2023/07/28 07:56:11;;;;;;;6.63;4.10;;;;;;;18.26;100.00;100622.81;5057322;28;20032;-89
2023/07/28 07:58:36;;;;;;;9.63;4.80;;;;;;;18.24;100.00;100629.91;5055611;28;20465;-78
2023/07/28 08:01:02;;;;;;;9.33;5.50;;;;;;;18.22;100.00;100631.78;5056469;28;20075;-88
2023/07/28 08:03:28;;;;;;;7.78;4.82;;;;;;;18.21;100.00;100624.84;5070708;28;20051;-94
2023/07/28 08:05:56;;;;;;;7.20;3.90;;;;;;;18.23;100.00;100620.34;5063217;28;20077;-94
2023/07/28 08:08:21;;;;;;;6.93;4.30;;;;;;;18.27;100.00;100629.75;5069045;28;20029;-90
2023/07/28 08:10:47;;;;;;;6.17;3.83;;;;;;;18.31;100.00;100633.06;5063220;28;20033;-89
2023/07/28 08:13:14;;;;;;;7.03;4.10;;;;;;;18.30;100.00;100631.38;5060926;28;20083;-89
2023/07/28 08:15:39;;;;;;;5.40;3.60;;;;;;;18.30;100.00;100636.63;5057411;28;20025;-90
2023/07/28 08:18:05;;;;;;;4.70;3.50;;;;;;;18.32;100.00;100635.63;5055891;28;20048;-87
2023/07/28 08:20:30;;;;;;;5.50;3.77;;;;;;;18.28;100.00;100634.09;5056673;28;20017;-89
2023/07/28 08:22:55;;;;;;;5.07;3.60;;;;;;;18.32;100.00;100640.03;5056919;28;20052;-88
2023/07/28 08:25:22;;;;;;;4.50;3.23;;;;;;;18.34;100.00;100638.19;5056238;28;20469;-88
2023/07/28 08:27:48;;;;;;;6.97;3.92;;;;;;;18.33;100.00;100642.59;5055824;28;20029;-89
2023/07/28 08:30:15;;;;;;;5.33;3.50;;;;;;;18.30;100.00;100629.59;5056277;28;20021;-88
2023/07/28 08:32:41;;;;;;;5.38;3.70;;;;;;;18.39;100.00;100643.19;5056546;28;20029;-89
2023/07/28 08:35:08;;;;;;;5.20;3.63;;;;;;;18.43;100.00;100644.75;5056273;28;20487;-88
2023/07/28 08:37:39;;;;;;;8.30;4.88;;;;;;;18.45;100.00;100648.16;5057382;28;20025;-90
2023/07/28 08:40:05;;;;;;;6.18;4.25;;;;;;;18.51;100.00;100648.69;5056593;28;20021;-84
2023/07/28 08:42:36;;;;;;;4.55;3.65;;;;;;;18.61;100.00;100654.28;5055315;28;20403;-83
2023/07/28 08:45:04;;;;;;;3.90;3.10;;;;;;;18.71;100.00;100646.78;5054984;28;20428;-83
2023/07/28 08:47:30;;;;;;;5.22;3.72;;;;;;;18.77;100.00;100650.88;5054927;28;20100;-84
2023/07/28 08:49:55;;;;;;;8.23;5.10;;;;;;;18.82;100.00;100654.97;5054933;28;20045;-83
2023/07/28 08:52:20;;;;;;;10.07;6.00;;;;;;;18.79;100.00;100649.84;5054032;28;20435;-84
2023/07/28 08:54:46;;;;;;;8.40;5.60;;;;;;;18.82;100.00;100647.06;5054871;28;20024;-83
2023/07/28 08:57:12;;;;;;;8.82;5.55;;;;;;;18.95;100.00;100659.59;5054593;28;20108;-83
2023/07/28 08:59:41;;;;;;;8.32;5.07;;;;;;;19.06;100.00;100659.00;5054726;28;20024;-83
2023/07/28 09:02:09;;;;;;;8.65;5.85;;;;;;;19.14;100.00;100662.06;5054515;28;20056;-84
2023/07/28 09:04:37;;;;;;;9.93;6.30;;;;;;;19.24;100.00;100657.16;5054808;28;20060;-84
2023/07/28 09:07:05;;;;;;;7.18;4.90;;;;;;;19.32;100.00;100654.13;5054047;28;20728;-84
2023/07/28 09:09:32;;;;;;;5.50;4.30;;;;;;;19.40;100.00;100652.75;5054679;28;20502;-84
2023/07/28 09:11:59;;;;;;;5.30;4.20;;;;;;;19.48;100.00;100662.00;5054831;28;20028;-84
2023/07/28 09:14:25;;;;;;;4.07;3.60;;;;;;;19.53;100.00;100660.81;5054060;28;20051;-84
2023/07/28 09:16:50;;;;;;;4.00;3.43;;;;;;;19.60;100.00;100661.31;5053889;28;20048;-83
2023/07/28 09:19:16;;;;;;;3.20;2.90;;;;;;;19.67;100.00;100659.19;5053360;28;20032;-82
2023/07/28 09:22:01;;;;;;;4.80;3.67;;;;;;;19.73;100.00;100658.84;5053808;28;20110;-82
2023/07/28 09:24:33;;;;;;;4.63;3.93;;;;;;;19.78;100.00;100658.56;5055502;28;20021;-90
2023/07/28 09:27:00;;;;;;;4.75;3.90;;;;;;;19.92;100.00;100668.38;5055177;28;20031;-84
2023/07/28 09:29:27;;;;;;;;;;;;;;;20.09;100.00;100673.50;5054101;28;20025;-84
2023/07/28 09:32:02;;;;;;;4.82;3.70;;;;;;;20.22;100.00;100676.25;5053751;28;19916;-83
2023/07/28 09:34:28;;;;;;;4.45;3.75;;;;;;;20.33;100.00;100673.00;5053848;28;20493;-83
2023/07/28 09:36:54;;;;;;;4.70;3.67;;;;;;;20.44;100.00;100674.97;5055072;28;20029;-88
2023/07/28 09:39:20;;;;;;;6.82;4.88;;;;;;;20.50;100.00;100669.34;5053662;28;20564;-85
2023/07/28 09:41:46;;;;;;;4.20;3.70;;;;;;;20.59;100.00;100660.88;5054026;28;20096;-83
2023/07/28 09:44:12;;;;;;;4.65;3.50;;;;;;;20.73;100.00;100665.31;5053775;28;20477;-84
2023/07/28 09:46:50;;;;;;;4.03;3.53;;;;;;;20.95;100.00;100664.03;5054695;28;20488;-84
2023/07/28 09:49:18;;;;;;;3.47;3.17;;;;;;;21.19;100.00;100663.44;5053526;28;20033;-85
2023/07/28 09:51:49;;;;;;;3.40;3.10;;;;;;;21.40;100.00;100662.06;5053980;28;20135;-85
2023/07/28 09:54:27;;;;;;;2.70;2.50;;;;;;;21.58;100.00;100667.13;5053902;28;20039;-85
2023/07/28 09:56:59;;;;;;;3.95;3.30;;;;;;;21.70;100.00;100663.72;5053636;28;20040;-86
2023/07/28 09:59:42;;;;;;;3.60;3.20;;;;;;;21.82;100.00;100664.72;5054811;28;20051;-86
2023/07/28 10:02:09;;;;;;;3.30;3.00;;;;;;;21.98;100.00;100669.81;5053425;28;20055;-86
2023/07/28 10:04:35;;;;;;;3.40;3.10;;;;;;;22.08;100.00;100671.84;5054253;28;20025;-85
2023/07/28 10:07:04;;;;;;;3.20;2.90;;;;;;;22.14;100.00;100668.81;5054394;28;20380;-85
2023/07/28 10:09:31;;;;;;;3.65;3.35;;;;;;;22.19;100.00;100666.69;5053788;28;20485;-85
2023/07/28 10:11:56;;;;;;;3.40;3.10;;;;;;;22.24;100.00;100669.88;5053974;28;20039;-86
2023/07/28 10:14:34;;;;;;;3.40;3.10;;;;;;;22.32;100.00;100672.00;5054253;28;20513;-85
2023/07/28 10:17:01;;;;;;;3.15;2.85;;;;;;;22.45;100.00;100674.69;5053750;28;20045;-85
2023/07/28 10:19:28;;;;;;;2.92;2.72;;;;;;;22.54;97.84;100681.16;5053196;28;20485;-84
2023/07/28 10:22:07;;;;;;;;;;;;;;;22.54;93.76;100675.88;5054190;28;20094;-85
2023/07/28 10:24:55;;;;;;;4.63;3.58;;;;;;;22.60;97.92;100676.28;5052995;28;20368;-85
2023/07/28 10:27:33;;;;;;;3.40;3.10;;;;;;;22.65;97.00;100676.81;5053310;28;20029;-86
2023/07/28 10:30:01;;;;;;;3.47;3.17;;;;;;;22.75;97.12;100676.16;5053032;28;20056;-84
2023/07/28 10:32:30;;;;;;;3.38;3.08;;;;;;;22.75;97.09;100676.16;5052389;28;20049;-85
2023/07/28 10:35:07;;;;;;;3.05;2.75;;;;;;;22.79;97.43;100680.31;5052430;28;20032;-86
2023/07/28 10:37:33;;;;;;;3.45;3.15;;;;;;;22.80;95.06;100680.19;5053117;28;20025;-84
2023/07/28 10:40:26;;;;;;;3.40;3.10;;;;;;;22.82;96.23;100677.44;5052283;28;20029;-82
2023/07/28 10:42:52;;;;;;;3.05;2.75;;;;;;;22.92;96.42;100672.34;5053272;28;20040;-83
2023/07/28 10:45:18;;;;;;;3.10;2.80;;;;;;;23.03;96.32;100682.19;5051485;28;20033;-83
2023/07/28 10:47:45;;;;;;;3.70;3.10;;;;;;;23.09;95.15;100679.97;5053271;28;20079;-84
2023/07/28 10:50:12;;;;;;;3.13;2.90;;;;;;;23.13;93.54;100675.28;5052772;28;20024;-83
2023/07/28 10:52:47;;;;;;;3.00;2.70;;;;;;;23.19;93.89;100680.19;5052709;28;20060;-83
2023/07/28 10:55:16;;;;;;;3.22;2.92;;;;;;;23.24;91.66;100674.56;5052334;28;20025;-83
2023/07/28 10:57:44;;;;;;;2.80;2.60;;;;;;;23.35;94.75;100676.41;5054006;28;20396;-83
2023/07/28 11:00:12;;;;;;;2.92;2.72;;;;;;;23.50;89.26;100664.72;5051631;28;20535;-84
2023/07/28 11:02:44;;;;;;;2.50;2.30;;;;;;;23.69;91.10;100672.19;5052963;28;20109;-84
2023/07/28 11:05:12;;;;;;;2.40;2.20;;;;;;;23.79;91.00;100674.97;5052970;28;20045;-84
2023/07/28 11:07:42;;;;;;;2.30;2.20;;;;;;;23.91;91.20;100658.16;5051928;28;20104;-84
2023/07/28 11:10:09;;;;;;;2.03;1.92;;;;;;;24.09;90.91;100673.69;5052112;28;20027;-84
2023/07/28 11:12:34;;;;;;;2.00;1.90;;;;;;;24.30;90.52;100667.72;5052556;28;20495;-83
2023/07/28 11:15:00;;;;;;;1.70;1.60;;;;;;;24.41;88.28;100673.03;5052455;28;20051;-85